sensor_id;sensor_type;location;lat;lon;timestamp;P1;durP1;ratioP1;P2;durP2;ratioP2
12535;SDS011;6334;48.696;2.114;2023-07-31T00:00:13;4.83;;;2.97;;
12535;SDS011;6334;48.696;2.114;2023-07-31T00:02:43;7.77;;;3.50;;
12535;SDS011;6334;48.696;2.114;2023-07-31T00:05:14;5.37;;;3.47;;
12535;SDS011;6334;48.696;2.114;2023-07-31T00:07:44;8.33;;;3.40;;
12535;SDS011;6334;48.696;2.114;2023-07-31T00:10:15;5.97;;;3.43;;
12535;SDS011;6334;48.696;2.114;2023-07-31T00:12:45;4.23;;;3.27;;
12535;SDS011;6334;48.696;2.114;2023-07-31T00:15:16;5.50;;;3.30;;
12535;SDS011;6334;48.696;2.114;2023-07-31T00:17:46;3.23;;;2.60;;
12535;SDS011;6334;48.696;2.114;2023-07-31T00:20:17;6.37;;;3.33;;
12535;SDS011;6334;48.696;2.114;2023-07-31T00:22:47;6.23;;;3.53;;
12535;SDS011;6334;48.696;2.114;2023-07-31T00:25:17;4.60;;;3.40;;
12535;SDS011;6334;48.696;2.114;2023-07-31T00:27:48;6.03;;;3.40;;
12535;SDS011;6334;48.696;2.114;2023-07-31T00:30:18;4.83;;;3.40;;
12535;SDS011;6334;48.696;2.114;2023-07-31T00:32:49;6.13;;;3.67;;
12535;SDS011;6334;48.696;2.114;2023-07-31T00:35:19;5.43;;;3.50;;
12535;SDS011;6334;48.696;2.114;2023-07-31T00:37:50;7.30;;;3.23;;
12535;SDS011;6334;48.696;2.114;2023-07-31T00:40:20;4.70;;;3.23;;
12535;SDS011;6334;48.696;2.114;2023-07-31T00:42:51;4.57;;;3.50;;
12535;SDS011;6334;48.696;2.114;2023-07-31T00:45:21;5.33;;;3.40;;
12535;SDS011;6334;48.696;2.114;2023-07-31T00:47:53;4.70;;;3.40;;
12535;SDS011;6334;48.696;2.114;2023-07-31T00:50:24;4.33;;;3.47;;
12535;SDS011;6334;48.696;2.114;2023-07-31T00:52:55;5.60;;;3.33;;
12535;SDS011;6334;48.696;2.114;2023-07-31T00:55:25;4.37;;;3.13;;
12535;SDS011;6334;48.696;2.114;2023-07-31T00:57:56;6.33;;;3.60;;
12535;SDS011;6334;48.696;2.114;2023-07-31T01:00:27;5.93;;;3.13;;
12535;SDS011;6334;48.696;2.114;2023-07-31T01:02:58;3.83;;;3.10;;
12535;SDS011;6334;48.696;2.114;2023-07-31T01:06:15;6.60;;;3.80;;
12535;SDS011;6334;48.696;2.114;2023-07-31T01:08:11;5.43;;;3.30;;
12535;SDS011;6334;48.696;2.114;2023-07-31T01:10:41;4.50;;;3.30;;
12535;SDS011;6334;48.696;2.114;2023-07-31T01:13:08;3.90;;;2.93;;
12535;SDS011;6334;48.696;2.114;2023-07-31T01:15:38;4.93;;;2.80;;
12535;SDS011;6334;48.696;2.114;2023-07-31T01:18:09;7.07;;;3.53;;
12535;SDS011;6334;48.696;2.114;2023-07-31T01:20:39;5.37;;;3.20;;
12535;SDS011;6334;48.696;2.114;2023-07-31T01:26:05;6.90;;;3.70;;
12535;SDS011;6334;48.696;2.114;2023-07-31T01:29:10;3.73;;;2.90;;
12535;SDS011;6334;48.696;2.114;2023-07-31T01:31:30;6.20;;;3.23;;
12535;SDS011;6334;48.696;2.114;2023-07-31T01:34:00;5.50;;;3.03;;
12535;SDS011;6334;48.696;2.114;2023-07-31T01:36:31;4.00;;;3.03;;
12535;SDS011;6334;48.696;2.114;2023-07-31T01:39:00;6.80;;;3.50;;
12535;SDS011;6334;48.696;2.114;2023-07-31T01:41:30;4.60;;;2.90;;
12535;SDS011;6334;48.696;2.114;2023-07-31T01:44:01;5.83;;;3.60;;
12535;SDS011;6334;48.696;2.114;2023-07-31T01:46:31;5.77;;;3.20;;
12535;SDS011;6334;48.696;2.114;2023-07-31T01:49:02;6.70;;;3.53;;
12535;SDS011;6334;48.696;2.114;2023-07-31T01:51:32;5.23;;;3.60;;
12535;SDS011;6334;48.696;2.114;2023-07-31T01:54:03;5.07;;;3.20;;
12535;SDS011;6334;48.696;2.114;2023-07-31T01:56:33;6.53;;;3.20;;
12535;SDS011;6334;48.696;2.114;2023-07-31T01:59:03;7.00;;;3.60;;
12535;SDS011;6334;48.696;2.114;2023-07-31T02:01:34;5.60;;;3.47;;
12535;SDS011;6334;48.696;2.114;2023-07-31T02:04:04;5.70;;;3.37;;
12535;SDS011;6334;48.696;2.114;2023-07-31T02:06:35;5.30;;;2.97;;
12535;SDS011;6334;48.696;2.114;2023-07-31T02:09:05;5.03;;;3.20;;
12535;SDS011;6334;48.696;2.114;2023-07-31T02:11:36;4.83;;;3.40;;
12535;SDS011;6334;48.696;2.114;2023-07-31T02:14:06;4.37;;;2.80;;
12535;SDS011;6334;48.696;2.114;2023-07-31T02:16:37;4.17;;;3.20;;
12535;SDS011;6334;48.696;2.114;2023-07-31T02:19:07;4.07;;;2.87;;
12535;SDS011;6334;48.696;2.114;2023-07-31T02:21:38;4.47;;;2.87;;
12535;SDS011;6334;48.696;2.114;2023-07-31T02:24:08;4.47;;;2.90;;
12535;SDS011;6334;48.696;2.114;2023-07-31T02:26:39;7.03;;;3.07;;
12535;SDS011;6334;48.696;2.114;2023-07-31T02:29:09;4.77;;;2.83;;
12535;SDS011;6334;48.696;2.114;2023-07-31T02:31:40;7.70;;;3.60;;
12535;SDS011;6334;48.696;2.114;2023-07-31T02:34:11;18.53;;;2.97;;
12535;SDS011;6334;48.696;2.114;2023-07-31T02:36:42;5.37;;;3.50;;
12535;SDS011;6334;48.696;2.114;2023-07-31T02:39:12;5.53;;;2.90;;
12535;SDS011;6334;48.696;2.114;2023-07-31T02:41:43;3.77;;;3.00;;
12535;SDS011;6334;48.696;2.114;2023-07-31T02:44:13;6.13;;;3.10;;
12535;SDS011;6334;48.696;2.114;2023-07-31T02:46:44;4.63;;;2.33;;
12535;SDS011;6334;48.696;2.114;2023-07-31T02:49:14;4.83;;;3.60;;
12535;SDS011;6334;48.696;2.114;2023-07-31T02:51:45;6.93;;;3.30;;
12535;SDS011;6334;48.696;2.114;2023-07-31T02:54:15;3.63;;;3.00;;
12535;SDS011;6334;48.696;2.114;2023-07-31T02:56:45;3.13;;;2.83;;
12535;SDS011;6334;48.696;2.114;2023-07-31T02:59:17;4.77;;;3.27;;
12535;SDS011;6334;48.696;2.114;2023-07-31T03:01:48;6.07;;;2.97;;
12535;SDS011;6334;48.696;2.114;2023-07-31T03:04:18;4.50;;;2.77;;
12535;SDS011;6334;48.696;2.114;2023-07-31T03:06:48;3.80;;;3.40;;
12535;SDS011;6334;48.696;2.114;2023-07-31T03:09:19;6.73;;;3.03;;
12535;SDS011;6334;48.696;2.114;2023-07-31T03:11:49;6.97;;;3.50;;
12535;SDS011;6334;48.696;2.114;2023-07-31T03:14:20;6.30;;;3.10;;
12535;SDS011;6334;48.696;2.114;2023-07-31T03:16:50;4.00;;;2.93;;
12535;SDS011;6334;48.696;2.114;2023-07-31T03:19:21;4.30;;;3.03;;
12535;SDS011;6334;48.696;2.114;2023-07-31T03:21:51;5.20;;;2.97;;
12535;SDS011;6334;48.696;2.114;2023-07-31T03:24:22;4.90;;;3.10;;
12535;SDS011;6334;48.696;2.114;2023-07-31T03:26:52;4.27;;;2.63;;
12535;SDS011;6334;48.696;2.114;2023-07-31T03:29:23;4.50;;;3.13;;
12535;SDS011;6334;48.696;2.114;2023-07-31T03:31:53;4.77;;;3.50;;
12535;SDS011;6334;48.696;2.114;2023-07-31T03:34:23;10.67;;;3.60;;
12535;SDS011;6334;48.696;2.114;2023-07-31T03:36:55;5.40;;;2.90;;
12535;SDS011;6334;48.696;2.114;2023-07-31T03:39:26;4.00;;;2.43;;
12535;SDS011;6334;48.696;2.114;2023-07-31T03:41:56;6.87;;;3.57;;
12535;SDS011;6334;48.696;2.114;2023-07-31T03:44:27;4.73;;;3.10;;
12535;SDS011;6334;48.696;2.114;2023-07-31T03:46:57;5.43;;;3.37;;
12535;SDS011;6334;48.696;2.114;2023-07-31T03:49:27;5.00;;;3.07;;
12535;SDS011;6334;48.696;2.114;2023-07-31T03:51:58;3.83;;;2.60;;
12535;SDS011;6334;48.696;2.114;2023-07-31T03:54:28;5.23;;;3.50;;
12535;SDS011;6334;48.696;2.114;2023-07-31T03:56:59;3.83;;;2.93;;
12535;SDS011;6334;48.696;2.114;2023-07-31T03:59:29;5.93;;;3.20;;
12535;SDS011;6334;48.696;2.114;2023-07-31T04:01:59;5.60;;;3.37;;
12535;SDS011;6334;48.696;2.114;2023-07-31T04:04:29;4.93;;;3.17;;
12535;SDS011;6334;48.696;2.114;2023-07-31T04:07:00;4.20;;;3.00;;
12535;SDS011;6334;48.696;2.114;2023-07-31T04:09:31;6.33;;;3.17;;
12535;SDS011;6334;48.696;2.114;2023-07-31T04:12:01;4.13;;;3.20;;
12535;SDS011;6334;48.696;2.114;2023-07-31T04:14:31;4.50;;;3.03;;
12535;SDS011;6334;48.696;2.114;2023-07-31T04:17:02;4.00;;;3.07;;
12535;SDS011;6334;48.696;2.114;2023-07-31T04:19:33;5.70;;;3.37;;
12535;SDS011;6334;48.696;2.114;2023-07-31T04:22:03;6.57;;;3.67;;
12535;SDS011;6334;48.696;2.114;2023-07-31T04:24:33;4.73;;;3.43;;
12535;SDS011;6334;48.696;2.114;2023-07-31T04:27:04;5.40;;;3.20;;
12535;SDS011;6334;48.696;2.114;2023-07-31T04:29:34;8.67;;;3.50;;
12535;SDS011;6334;48.696;2.114;2023-07-31T04:32:05;7.07;;;3.60;;
12535;SDS011;6334;48.696;2.114;2023-07-31T04:34:35;5.27;;;3.70;;
12535;SDS011;6334;48.696;2.114;2023-07-31T04:37:06;5.97;;;3.60;;
12535;SDS011;6334;48.696;2.114;2023-07-31T04:39:36;7.33;;;3.70;;
12535;SDS011;6334;48.696;2.114;2023-07-31T04:42:07;7.80;;;3.97;;
12535;SDS011;6334;48.696;2.114;2023-07-31T04:44:37;9.93;;;3.80;;
12535;SDS011;6334;48.696;2.114;2023-07-31T04:47:08;9.13;;;3.83;;
12535;SDS011;6334;48.696;2.114;2023-07-31T04:49:38;9.27;;;3.93;;
12535;SDS011;6334;48.696;2.114;2023-07-31T04:52:08;4.70;;;3.53;;
12535;SDS011;6334;48.696;2.114;2023-07-31T04:54:39;6.50;;;3.50;;
12535;SDS011;6334;48.696;2.114;2023-07-31T04:57:09;7.63;;;4.10;;
12535;SDS011;6334;48.696;2.114;2023-07-31T04:59:40;6.53;;;3.63;;
12535;SDS011;6334;48.696;2.114;2023-07-31T05:02:11;7.43;;;4.10;;
12535;SDS011;6334;48.696;2.114;2023-07-31T05:04:41;8.10;;;3.67;;
12535;SDS011;6334;48.696;2.114;2023-07-31T05:07:11;7.30;;;3.93;;
12535;SDS011;6334;48.696;2.114;2023-07-31T05:09:42;7.60;;;3.93;;
12535;SDS011;6334;48.696;2.114;2023-07-31T05:12:12;9.30;;;4.10;;
12535;SDS011;6334;48.696;2.114;2023-07-31T05:14:43;8.53;;;4.43;;
12535;SDS011;6334;48.696;2.114;2023-07-31T05:17:13;9.17;;;4.57;;
12535;SDS011;6334;48.696;2.114;2023-07-31T05:19:43;6.00;;;3.80;;
12535;SDS011;6334;48.696;2.114;2023-07-31T05:22:14;8.50;;;4.07;;
12535;SDS011;6334;48.696;2.114;2023-07-31T05:24:44;7.77;;;4.03;;
12535;SDS011;6334;48.696;2.114;2023-07-31T05:27:15;8.20;;;4.07;;
12535;SDS011;6334;48.696;2.114;2023-07-31T05:29:45;6.07;;;3.87;;
12535;SDS011;6334;48.696;2.114;2023-07-31T05:32:16;10.53;;;4.67;;
12535;SDS011;6334;48.696;2.114;2023-07-31T05:34:46;9.53;;;4.33;;
12535;SDS011;6334;48.696;2.114;2023-07-31T05:37:17;7.63;;;3.80;;
12535;SDS011;6334;48.696;2.114;2023-07-31T05:39:47;7.17;;;3.93;;
12535;SDS011;6334;48.696;2.114;2023-07-31T05:42:18;8.90;;;4.50;;
12535;SDS011;6334;48.696;2.114;2023-07-31T05:44:48;8.10;;;4.00;;
12535;SDS011;6334;48.696;2.114;2023-07-31T05:47:18;9.13;;;4.37;;
12535;SDS011;6334;48.696;2.114;2023-07-31T05:49:49;8.47;;;4.17;;
12535;SDS011;6334;48.696;2.114;2023-07-31T05:52:19;10.83;;;4.30;;
12535;SDS011;6334;48.696;2.114;2023-07-31T05:54:50;10.80;;;4.73;;
12535;SDS011;6334;48.696;2.114;2023-07-31T05:57:20;6.83;;;4.47;;
12535;SDS011;6334;48.696;2.114;2023-07-31T05:59:51;8.33;;;4.43;;
12535;SDS011;6334;48.696;2.114;2023-07-31T06:02:21;7.23;;;4.27;;
12535;SDS011;6334;48.696;2.114;2023-07-31T06:04:52;7.03;;;4.23;;
12535;SDS011;6334;48.696;2.114;2023-07-31T06:07:22;9.10;;;4.30;;
12535;SDS011;6334;48.696;2.114;2023-07-31T06:09:52;11.70;;;4.83;;
12535;SDS011;6334;48.696;2.114;2023-07-31T06:12:23;10.50;;;4.57;;
12535;SDS011;6334;48.696;2.114;2023-07-31T06:14:53;7.60;;;4.40;;
12535;SDS011;6334;48.696;2.114;2023-07-31T06:17:24;7.90;;;4.50;;
12535;SDS011;6334;48.696;2.114;2023-07-31T06:19:54;8.17;;;4.63;;
12535;SDS011;6334;48.696;2.114;2023-07-31T06:22:25;9.10;;;4.30;;
12535;SDS011;6334;48.696;2.114;2023-07-31T06:24:55;10.77;;;4.90;;
12535;SDS011;6334;48.696;2.114;2023-07-31T06:27:26;9.73;;;4.87;;
12535;SDS011;6334;48.696;2.114;2023-07-31T06:29:57;9.90;;;4.77;;
12535;SDS011;6334;48.696;2.114;2023-07-31T06:32:27;6.00;;;4.10;;
12535;SDS011;6334;48.696;2.114;2023-07-31T06:34:57;9.63;;;4.67;;
12535;SDS011;6334;48.696;2.114;2023-07-31T06:37:28;7.10;;;4.30;;
12535;SDS011;6334;48.696;2.114;2023-07-31T06:39:58;9.87;;;4.67;;
12535;SDS011;6334;48.696;2.114;2023-07-31T06:42:29;9.37;;;4.57;;
12535;SDS011;6334;48.696;2.114;2023-07-31T06:44:59;10.80;;;4.97;;
12535;SDS011;6334;48.696;2.114;2023-07-31T06:47:30;9.27;;;5.13;;
12535;SDS011;6334;48.696;2.114;2023-07-31T06:50:00;10.17;;;4.70;;
12535;SDS011;6334;48.696;2.114;2023-07-31T06:52:30;11.93;;;4.53;;
12535;SDS011;6334;48.696;2.114;2023-07-31T06:55:04;9.07;;;4.30;;
12535;SDS011;6334;48.696;2.114;2023-07-31T06:57:34;15.00;;;5.50;;
12535;SDS011;6334;48.696;2.114;2023-07-31T07:00:05;7.43;;;4.50;;
12535;SDS011;6334;48.696;2.114;2023-07-31T07:02:35;10.37;;;4.70;;
12535;SDS011;6334;48.696;2.114;2023-07-31T07:05:06;9.13;;;4.70;;
12535;SDS011;6334;48.696;2.114;2023-07-31T07:07:36;11.27;;;5.27;;
12535;SDS011;6334;48.696;2.114;2023-07-31T07:10:07;8.57;;;4.77;;
12535;SDS011;6334;48.696;2.114;2023-07-31T07:12:38;8.93;;;4.73;;
12535;SDS011;6334;48.696;2.114;2023-07-31T07:15:09;9.10;;;4.77;;
12535;SDS011;6334;48.696;2.114;2023-07-31T07:17:39;11.13;;;5.13;;
12535;SDS011;6334;48.696;2.114;2023-07-31T07:20:10;10.03;;;4.70;;
12535;SDS011;6334;48.696;2.114;2023-07-31T07:22:40;9.70;;;4.47;;
12535;SDS011;6334;48.696;2.114;2023-07-31T07:25:11;11.50;;;5.13;;
12535;SDS011;6334;48.696;2.114;2023-07-31T07:27:41;10.23;;;4.67;;
12535;SDS011;6334;48.696;2.114;2023-07-31T07:30:12;9.17;;;4.63;;
12535;SDS011;6334;48.696;2.114;2023-07-31T07:32:42;10.50;;;5.03;;
12535;SDS011;6334;48.696;2.114;2023-07-31T07:35:12;13.53;;;4.87;;
12535;SDS011;6334;48.696;2.114;2023-07-31T07:37:43;8.70;;;5.03;;
12535;SDS011;6334;48.696;2.114;2023-07-31T07:40:13;9.37;;;5.00;;
12535;SDS011;6334;48.696;2.114;2023-07-31T07:42:44;10.23;;;4.73;;
12535;SDS011;6334;48.696;2.114;2023-07-31T07:45:14;10.20;;;5.00;;
12535;SDS011;6334;48.696;2.114;2023-07-31T07:47:46;10.43;;;4.97;;
12535;SDS011;6334;48.696;2.114;2023-07-31T07:50:16;9.83;;;4.57;;
12535;SDS011;6334;48.696;2.114;2023-07-31T07:52:47;9.70;;;5.07;;
12535;SDS011;6334;48.696;2.114;2023-07-31T07:55:17;8.93;;;5.13;;
12535;SDS011;6334;48.696;2.114;2023-07-31T07:57:48;9.27;;;5.03;;
12535;SDS011;6334;48.696;2.114;2023-07-31T08:00:18;9.20;;;4.43;;
12535;SDS011;6334;48.696;2.114;2023-07-31T08:02:49;7.27;;;4.40;;
12535;SDS011;6334;48.696;2.114;2023-07-31T08:05:20;8.07;;;4.57;;
12535;SDS011;6334;48.696;2.114;2023-07-31T08:07:51;12.97;;;4.70;;
12535;SDS011;6334;48.696;2.114;2023-07-31T08:10:21;9.40;;;4.80;;
12535;SDS011;6334;48.696;2.114;2023-07-31T08:12:51;8.80;;;5.13;;
12535;SDS011;6334;48.696;2.114;2023-07-31T08:15:22;12.03;;;4.57;;
12535;SDS011;6334;48.696;2.114;2023-07-31T08:17:52;9.43;;;4.57;;
12535;SDS011;6334;48.696;2.114;2023-07-31T08:20:26;7.60;;;4.17;;
12535;SDS011;6334;48.696;2.114;2023-07-31T08:22:56;10.43;;;4.83;;
12535;SDS011;6334;48.696;2.114;2023-07-31T08:25:26;8.40;;;4.37;;
12535;SDS011;6334;48.696;2.114;2023-07-31T08:27:57;7.43;;;4.87;;
12535;SDS011;6334;48.696;2.114;2023-07-31T08:30:28;11.27;;;4.43;;
12535;SDS011;6334;48.696;2.114;2023-07-31T08:32:58;9.17;;;4.53;;
12535;SDS011;6334;48.696;2.114;2023-07-31T08:35:28;8.73;;;4.13;;
12535;SDS011;6334;48.696;2.114;2023-07-31T08:37:59;8.83;;;4.53;;
12535;SDS011;6334;48.696;2.114;2023-07-31T08:40:29;10.10;;;5.00;;
12535;SDS011;6334;48.696;2.114;2023-07-31T08:43:00;9.87;;;4.67;;
12535;SDS011;6334;48.696;2.114;2023-07-31T08:45:30;8.30;;;4.37;;
12535;SDS011;6334;48.696;2.114;2023-07-31T08:48:01;6.37;;;4.20;;
12535;SDS011;6334;48.696;2.114;2023-07-31T08:50:31;8.43;;;4.60;;
12535;SDS011;6334;48.696;2.114;2023-07-31T08:53:02;5.67;;;4.00;;
12535;SDS011;6334;48.696;2.114;2023-07-31T08:55:32;10.23;;;4.77;;
12535;SDS011;6334;48.696;2.114;2023-07-31T08:58:04;7.20;;;4.27;;
12535;SDS011;6334;48.696;2.114;2023-07-31T09:00:34;6.90;;;4.27;;
12535;SDS011;6334;48.696;2.114;2023-07-31T09:03:08;8.97;;;4.73;;
12535;SDS011;6334;48.696;2.114;2023-07-31T09:05:38;10.20;;;4.27;;
12535;SDS011;6334;48.696;2.114;2023-07-31T09:08:09;6.30;;;4.23;;
12535;SDS011;6334;48.696;2.114;2023-07-31T09:10:42;11.83;;;4.93;;
12535;SDS011;6334;48.696;2.114;2023-07-31T09:13:12;11.10;;;4.70;;
12535;SDS011;6334;48.696;2.114;2023-07-31T09:15:43;10.10;;;4.70;;
12535;SDS011;6334;48.696;2.114;2023-07-31T09:18:13;6.93;;;4.50;;
12535;SDS011;6334;48.696;2.114;2023-07-31T09:20:43;10.67;;;4.40;;
12535;SDS011;6334;48.696;2.114;2023-07-31T09:23:14;10.13;;;4.43;;
12535;SDS011;6334;48.696;2.114;2023-07-31T09:25:45;8.60;;;4.47;;
12535;SDS011;6334;48.696;2.114;2023-07-31T09:28:15;6.70;;;4.27;;
12535;SDS011;6334;48.696;2.114;2023-07-31T09:33:19;8.37;;;4.53;;
12535;SDS011;6334;48.696;2.114;2023-07-31T09:35:49;10.03;;;4.43;;
12535;SDS011;6334;48.696;2.114;2023-07-31T09:38:19;7.27;;;4.07;;
12535;SDS011;6334;48.696;2.114;2023-07-31T09:40:50;7.90;;;4.70;;
12535;SDS011;6334;48.696;2.114;2023-07-31T09:43:20;8.70;;;4.27;;
12535;SDS011;6334;48.696;2.114;2023-07-31T09:45:54;10.63;;;4.73;;
12535;SDS011;6334;48.696;2.114;2023-07-31T09:48:22;8.50;;;4.27;;
12535;SDS011;6334;48.696;2.114;2023-07-31T09:50:54;4.70;;;3.40;;
12535;SDS011;6334;48.696;2.114;2023-07-31T09:53:28;7.30;;;4.07;;
12535;SDS011;6334;48.696;2.114;2023-07-31T09:55:58;9.37;;;4.53;;
12535;SDS011;6334;48.696;2.114;2023-07-31T09:58:28;8.97;;;4.40;;
12535;SDS011;6334;48.696;2.114;2023-07-31T10:01:00;9.23;;;4.40;;
12535;SDS011;6334;48.696;2.114;2023-07-31T10:03:31;6.13;;;4.17;;
12535;SDS011;6334;48.696;2.114;2023-07-31T10:06:00;9.50;;;4.30;;
12535;SDS011;6334;48.696;2.114;2023-07-31T10:08:31;7.37;;;4.37;;
12535;SDS011;6334;48.696;2.114;2023-07-31T10:11:01;8.33;;;4.87;;
12535;SDS011;6334;48.696;2.114;2023-07-31T10:13:32;9.67;;;4.63;;
12535;SDS011;6334;48.696;2.114;2023-07-31T10:16:02;8.50;;;4.67;;
12535;SDS011;6334;48.696;2.114;2023-07-31T10:18:33;10.53;;;4.47;;
12535;SDS011;6334;48.696;2.114;2023-07-31T10:21:03;9.07;;;4.77;;
12535;SDS011;6334;48.696;2.114;2023-07-31T10:23:33;8.03;;;4.33;;
12535;SDS011;6334;48.696;2.114;2023-07-31T10:26:04;8.33;;;4.60;;
12535;SDS011;6334;48.696;2.114;2023-07-31T10:28:34;8.47;;;4.47;;
12535;SDS011;6334;48.696;2.114;2023-07-31T10:31:05;9.97;;;4.60;;
12535;SDS011;6334;48.696;2.114;2023-07-31T10:33:35;11.03;;;4.80;;
12535;SDS011;6334;48.696;2.114;2023-07-31T10:36:12;8.37;;;4.67;;
12535;SDS011;6334;48.696;2.114;2023-07-31T10:38:42;9.40;;;4.60;;
12535;SDS011;6334;48.696;2.114;2023-07-31T10:41:12;6.13;;;4.23;;
12535;SDS011;6334;48.696;2.114;2023-07-31T10:43:43;6.93;;;4.37;;
12535;SDS011;6334;48.696;2.114;2023-07-31T10:46:13;10.33;;;4.77;;
12535;SDS011;6334;48.696;2.114;2023-07-31T10:48:44;10.23;;;4.80;;
12535;SDS011;6334;48.696;2.114;2023-07-31T10:51:14;10.33;;;5.00;;
12535;SDS011;6334;48.696;2.114;2023-07-31T10:53:44;7.37;;;4.30;;
12535;SDS011;6334;48.696;2.114;2023-07-31T10:56:15;9.23;;;4.70;;
12535;SDS011;6334;48.696;2.114;2023-07-31T10:58:48;10.77;;;5.20;;
12535;SDS011;6334;48.696;2.114;2023-07-31T11:01:19;10.40;;;4.87;;
12535;SDS011;6334;48.696;2.114;2023-07-31T11:03:50;10.10;;;4.93;;
12535;SDS011;6334;48.696;2.114;2023-07-31T11:06:20;10.93;;;4.80;;
12535;SDS011;6334;48.696;2.114;2023-07-31T11:08:50;11.17;;;4.47;;
12535;SDS011;6334;48.696;2.114;2023-07-31T11:11:20;8.47;;;4.67;;
12535;SDS011;6334;48.696;2.114;2023-07-31T11:13:52;11.50;;;4.90;;
12535;SDS011;6334;48.696;2.114;2023-07-31T11:16:24;7.53;;;4.60;;
12535;SDS011;6334;48.696;2.114;2023-07-31T11:18:55;9.60;;;5.00;;
12535;SDS011;6334;48.696;2.114;2023-07-31T11:21:25;10.30;;;5.13;;
12535;SDS011;6334;48.696;2.114;2023-07-31T11:23:56;12.13;;;5.13;;
12535;SDS011;6334;48.696;2.114;2023-07-31T11:26:26;9.07;;;5.20;;
12535;SDS011;6334;48.696;2.114;2023-07-31T11:28:57;7.37;;;4.60;;
12535;SDS011;6334;48.696;2.114;2023-07-31T11:31:27;6.93;;;4.33;;
12535;SDS011;6334;48.696;2.114;2023-07-31T11:34:06;7.20;;;4.70;;
12535;SDS011;6334;48.696;2.114;2023-07-31T11:36:37;8.73;;;4.57;;
12535;SDS011;6334;48.696;2.114;2023-07-31T11:39:08;10.93;;;4.70;;
12535;SDS011;6334;48.696;2.114;2023-07-31T11:41:40;7.67;;;4.30;;
12535;SDS011;6334;48.696;2.114;2023-07-31T11:44:08;9.70;;;4.30;;
12535;SDS011;6334;48.696;2.114;2023-07-31T11:46:39;11.33;;;4.73;;
12535;SDS011;6334;48.696;2.114;2023-07-31T11:49:09;8.43;;;4.73;;
12535;SDS011;6334;48.696;2.114;2023-07-31T11:51:39;8.53;;;4.40;;
12535;SDS011;6334;48.696;2.114;2023-07-31T11:54:10;7.97;;;4.57;;
12535;SDS011;6334;48.696;2.114;2023-07-31T11:56:40;6.77;;;4.83;;
12535;SDS011;6334;48.696;2.114;2023-07-31T11:59:11;7.07;;;4.10;;
12535;SDS011;6334;48.696;2.114;2023-07-31T12:01:41;7.77;;;4.23;;
12535;SDS011;6334;48.696;2.114;2023-07-31T12:04:12;7.43;;;4.50;;
12535;SDS011;6334;48.696;2.114;2023-07-31T12:06:42;9.53;;;5.00;;
12535;SDS011;6334;48.696;2.114;2023-07-31T12:09:15;9.63;;;5.10;;
12535;SDS011;6334;48.696;2.114;2023-07-31T12:11:47;8.20;;;4.43;;
12535;SDS011;6334;48.696;2.114;2023-07-31T12:16:59;8.13;;;4.50;;
12535;SDS011;6334;48.696;2.114;2023-07-31T12:19:25;6.77;;;4.57;;
12535;SDS011;6334;48.696;2.114;2023-07-31T12:21:56;7.67;;;4.50;;
12535;SDS011;6334;48.696;2.114;2023-07-31T12:24:26;8.47;;;4.73;;
12535;SDS011;6334;48.696;2.114;2023-07-31T12:26:56;6.37;;;4.53;;
12535;SDS011;6334;48.696;2.114;2023-07-31T12:29:36;7.70;;;4.40;;
12535;SDS011;6334;48.696;2.114;2023-07-31T12:32:22;6.23;;;4.43;;
12535;SDS011;6334;48.696;2.114;2023-07-31T12:34:54;7.03;;;4.70;;
12535;SDS011;6334;48.696;2.114;2023-07-31T12:37:25;6.40;;;4.40;;
12535;SDS011;6334;48.696;2.114;2023-07-31T12:39:55;6.83;;;4.57;;
12535;SDS011;6334;48.696;2.114;2023-07-31T12:42:26;9.47;;;5.03;;
12535;SDS011;6334;48.696;2.114;2023-07-31T12:44:56;7.67;;;5.20;;
12535;SDS011;6334;48.696;2.114;2023-07-31T12:47:27;9.23;;;4.60;;
12535;SDS011;6334;48.696;2.114;2023-07-31T12:49:57;6.00;;;4.37;;
12535;SDS011;6334;48.696;2.114;2023-07-31T12:52:28;7.03;;;4.50;;
12535;SDS011;6334;48.696;2.114;2023-07-31T12:54:58;11.23;;;4.47;;
12535;SDS011;6334;48.696;2.114;2023-07-31T12:57:28;8.03;;;4.70;;
12535;SDS011;6334;48.696;2.114;2023-07-31T12:59:59;8.00;;;4.27;;
12535;SDS011;6334;48.696;2.114;2023-07-31T13:02:29;7.20;;;4.10;;
12535;SDS011;6334;48.696;2.114;2023-07-31T13:05:00;6.93;;;3.87;;
12535;SDS011;6334;48.696;2.114;2023-07-31T13:07:30;6.50;;;4.13;;
12535;SDS011;6334;48.696;2.114;2023-07-31T13:10:01;4.63;;;3.70;;
12535;SDS011;6334;48.696;2.114;2023-07-31T13:12:31;6.73;;;4.10;;
12535;SDS011;6334;48.696;2.114;2023-07-31T13:15:02;6.57;;;4.20;;
12535;SDS011;6334;48.696;2.114;2023-07-31T13:17:32;9.20;;;4.37;;
12535;SDS011;6334;48.696;2.114;2023-07-31T13:20:03;11.07;;;4.27;;
12535;SDS011;6334;48.696;2.114;2023-07-31T13:22:33;7.57;;;3.77;;
12535;SDS011;6334;48.696;2.114;2023-07-31T13:25:04;5.53;;;3.80;;
12535;SDS011;6334;48.696;2.114;2023-07-31T13:27:34;6.30;;;3.60;;
12535;SDS011;6334;48.696;2.114;2023-07-31T13:30:05;8.23;;;3.50;;
12535;SDS011;6334;48.696;2.114;2023-07-31T13:32:35;6.10;;;3.87;;
12535;SDS011;6334;48.696;2.114;2023-07-31T13:35:06;4.50;;;3.17;;
12535;SDS011;6334;48.696;2.114;2023-07-31T13:37:36;6.73;;;4.07;;
12535;SDS011;6334;48.696;2.114;2023-07-31T13:40:07;6.53;;;3.70;;
12535;SDS011;6334;48.696;2.114;2023-07-31T13:42:37;6.47;;;4.00;;
12535;SDS011;6334;48.696;2.114;2023-07-31T13:45:08;6.73;;;3.97;;
12535;SDS011;6334;48.696;2.114;2023-07-31T13:47:38;5.57;;;3.67;;
12535;SDS011;6334;48.696;2.114;2023-07-31T13:50:08;5.53;;;3.80;;
12535;SDS011;6334;48.696;2.114;2023-07-31T13:52:39;7.20;;;4.13;;
12535;SDS011;6334;48.696;2.114;2023-07-31T13:55:09;6.20;;;3.63;;
12535;SDS011;6334;48.696;2.114;2023-07-31T13:57:39;7.73;;;4.30;;
12535;SDS011;6334;48.696;2.114;2023-07-31T14:00:10;8.40;;;3.67;;
12535;SDS011;6334;48.696;2.114;2023-07-31T14:02:40;5.03;;;3.63;;
12535;SDS011;6334;48.696;2.114;2023-07-31T14:05:11;6.10;;;3.90;;
12535;SDS011;6334;48.696;2.114;2023-07-31T14:07:42;7.73;;;3.90;;
12535;SDS011;6334;48.696;2.114;2023-07-31T14:10:13;6.67;;;3.83;;
12535;SDS011;6334;48.696;2.114;2023-07-31T14:12:43;5.13;;;3.67;;
12535;SDS011;6334;48.696;2.114;2023-07-31T14:15:14;7.07;;;3.93;;
12535;SDS011;6334;48.696;2.114;2023-07-31T14:17:47;7.43;;;3.90;;
12535;SDS011;6334;48.696;2.114;2023-07-31T14:20:17;6.37;;;3.93;;
12535;SDS011;6334;48.696;2.114;2023-07-31T14:22:48;5.97;;;3.87;;
12535;SDS011;6334;48.696;2.114;2023-07-31T14:25:18;6.17;;;4.20;;
12535;SDS011;6334;48.696;2.114;2023-07-31T14:27:49;6.17;;;3.80;;
12535;SDS011;6334;48.696;2.114;2023-07-31T14:30:19;4.97;;;3.67;;
12535;SDS011;6334;48.696;2.114;2023-07-31T14:32:50;8.50;;;4.10;;
12535;SDS011;6334;48.696;2.114;2023-07-31T14:35:20;7.53;;;3.73;;
12535;SDS011;6334;48.696;2.114;2023-07-31T14:37:52;5.50;;;3.83;;
12535;SDS011;6334;48.696;2.114;2023-07-31T14:40:23;8.17;;;4.03;;
12535;SDS011;6334;48.696;2.114;2023-07-31T14:42:53;5.37;;;3.40;;
12535;SDS011;6334;48.696;2.114;2023-07-31T14:45:24;7.50;;;3.87;;
12535;SDS011;6334;48.696;2.114;2023-07-31T14:47:54;5.37;;;3.60;;
12535;SDS011;6334;48.696;2.114;2023-07-31T14:50:25;6.77;;;3.80;;
12535;SDS011;6334;48.696;2.114;2023-07-31T14:52:55;5.20;;;3.43;;
12535;SDS011;6334;48.696;2.114;2023-07-31T14:55:26;8.30;;;4.30;;
12535;SDS011;6334;48.696;2.114;2023-07-31T14:57:56;5.03;;;3.80;;
12535;SDS011;6334;48.696;2.114;2023-07-31T15:00:27;6.60;;;4.03;;
12535;SDS011;6334;48.696;2.114;2023-07-31T15:02:57;5.37;;;3.60;;
12535;SDS011;6334;48.696;2.114;2023-07-31T15:05:27;5.70;;;3.40;;
12535;SDS011;6334;48.696;2.114;2023-07-31T15:07:58;4.53;;;3.60;;
12535;SDS011;6334;48.696;2.114;2023-07-31T15:10:28;5.50;;;3.87;;
12535;SDS011;6334;48.696;2.114;2023-07-31T15:12:59;4.80;;;3.53;;
12535;SDS011;6334;48.696;2.114;2023-07-31T15:15:29;5.37;;;3.67;;
12535;SDS011;6334;48.696;2.114;2023-07-31T15:18:00;5.33;;;3.90;;
12535;SDS011;6334;48.696;2.114;2023-07-31T15:20:30;5.00;;;4.17;;
12535;SDS011;6334;48.696;2.114;2023-07-31T15:23:01;6.63;;;4.37;;
12535;SDS011;6334;48.696;2.114;2023-07-31T15:25:31;7.67;;;4.40;;
12535;SDS011;6334;48.696;2.114;2023-07-31T15:28:01;8.60;;;4.50;;